Flight Track Log - Related Links

Times and Time Zones

All times are in EDT time to prevent confusion due to time zone crossing. See the N27205 flight status page for this flight to view local times or setup timezone preferences in your user account.

Time Position Orientation Groundspeed Altitude Reporting Facility
EDT Latitude Longitude Course Direction KTS MPH feet Rate Location/Type
Mon 07:20:32 AM 25.8554 -80.3097 140° Southeast  Level FlightAware Approximate
Mon 07:21:04 AM 25.8006 -80.2583 360° North 180 207 1,000  Level Miami Center
Mon 07:25:25 AM 26.0033 -80.2572 328° Northwest 275 316 9,100 1,869 Climbing Miami Center
Mon 07:26:25 AM 26.0711 -80.3053 324° Northwest 281 323 11,000 2,050 Climbing Miami Center
Mon 07:27:25 AM 26.1489 -80.3678 326° Northwest 311 358 13,200 2,350 Climbing Miami Center
Mon 07:28:25 AM 26.2311 -80.4306 337° Northwest 335 386 15,700 2,400 Climbing Miami Center
Mon 07:29:25 AM 26.3281 -80.4775 337° Northwest 368 423 18,000 2,050 Climbing Miami Center
Mon 07:30:25 AM 26.4167 -80.5194 336° Northwest 380 437 19,800 2,050 Climbing Miami Center
Mon 07:31:25 AM 26.5281 -80.5742 338° Northwest 391 450 22,100 1,950 Climbing Miami Center
Mon 07:32:25 AM 26.6231 -80.6167 336° Northwest 396 456 23,700 1,650 Climbing Miami Center
Mon 07:33:25 AM 26.7428 -80.6761 341° North 406 467 25,400 1,650 Climbing Miami Center
Mon 07:34:25 AM 26.8564 -80.7194 342° North 421 484 27,000 1,550 Climbing Miami Center
Mon 07:35:25 AM 26.9722 -80.7628 342° North 428 493 28,500 1,600 Climbing Miami Center
Mon 07:36:25 AM 27.0881 -80.8042 343° North 435 501 30,200 1,600 Climbing Miami Center
Mon 07:37:25 AM 27.2039 -80.8431 347° North 435 501 31,700 1,250 Climbing Miami Center
Mon 07:38:25 AM 27.3200 -80.8728 351° North 435 501 32,700 900 Climbing Miami Center
Mon 07:39:25 AM 27.4486 -80.8961 350° North 435 501 33,500 850 Climbing Miami Center
Mon 07:40:25 AM 27.5733 -80.9214 350° North 442 509 34,400 800 Climbing Miami Center
Mon 07:41:25 AM 27.6978 -80.9469 350° North 453 521 35,100 900 Climbing Miami Center
Mon 07:42:25 AM 27.8203 -80.9725 350° North 453 521 36,200 900 Climbing Miami Center
Mon 07:43:25 AM 27.9428 -80.9958 350° North 447 514 36,900 400 Climbing Miami Center
Mon 07:44:25 AM 28.0650 -81.0214 350° North 447 514 37,000  Climbing Miami Center
Mon 07:45:25 AM 28.1894 -81.0472 349° North 447 514 36,900  Descending Miami Center
Mon 07:46:25 AM 28.3097 -81.0728 349° North 447 514 37,000 50 Climbing Miami Center
Mon 07:47:25 AM 28.4361 -81.1011 349° North 447 514 37,000  Level Miami Center
Mon 07:48:25 AM 28.5544 -81.1269 350° North 447 514 37,000  Level Miami Center
Mon 07:52:11 AM 29.0133 -81.2211 349° North 472 543 37,000  Level Jacksonville Center
Mon 07:53:12 AM 29.1369 -81.2497 349° North 462 532 37,000 -50 Level Jacksonville Center
Mon 07:54:11 AM 29.2564 -81.2764 350° North 450 518 36,900  Descending Jacksonville Center
Mon 07:55:11 AM 29.3819 -81.3006 347° North 450 518 37,000 50 Climbing Jacksonville Center
Mon 07:56:11 AM 29.5097 -81.3342 351° North 442 509 37,000  Level Jacksonville Center
Mon 07:57:11 AM 29.6372 -81.3586 349° North 442 509 37,000  Level Jacksonville Center
Mon 07:58:11 AM 29.7503 -81.3831 349° North 447 514 37,000  Level Jacksonville Center
Mon 07:59:11 AM 29.8739 -81.4100 349° North 447 514 37,000  Level Jacksonville Center
Mon 08:00:11 AM 29.9994 -81.4392 350° North 447 514 37,000  Level Jacksonville Center
Mon 08:01:12 AM 30.1250 -81.4636 349° North 447 514 37,000  Level Jacksonville Center
Mon 08:02:11 AM 30.2506 -81.4931 354° North 453 521 37,000  Level Jacksonville Center
Mon 08:03:11 AM 30.3781 -81.5081 North 453 521 37,000  Level Jacksonville Center
Mon 08:04:11 AM 30.5072 -81.4967 North 453 521 37,000  Level Jacksonville Center
Mon 08:05:11 AM 30.6344 -81.4850 North 459 528 37,000  Level Jacksonville Center
Mon 08:06:11 AM 30.7639 -81.4733 North 459 528 37,000  Level Jacksonville Center
Mon 08:07:11 AM 30.8892 -81.4644 North 459 528 37,000  Level Jacksonville Center
Mon 08:08:12 AM 31.0161 -81.4431 24° Northeast 459 528 37,000 -50 Level Jacksonville Center
Mon 08:09:11 AM 31.1344 -81.3806 24° Northeast 459 528 36,900  Descending Jacksonville Center
Mon 08:10:11 AM 31.2547 -81.3178 24° Northeast 459 528 37,000 50 Climbing Jacksonville Center
Mon 08:11:12 AM 31.3814 -81.2525 25° Northeast 459 528 37,000  Level Jacksonville Center
Mon 08:12:11 AM 31.4994 -81.1869 24° Northeast 454 522 37,000  Level Jacksonville Center
Mon 08:13:12 AM 31.6175 -81.1239 25° Northeast 456 525 37,000  Level Jacksonville Center
Mon 08:14:11 AM 31.7253 -81.0656 26° Northeast 461 531 37,000  Level Jacksonville Center
Mon 08:15:11 AM 31.8536 -80.9922 24° Northeast 461 531 37,000  Level Jacksonville Center
Mon 08:16:12 AM 31.9697 -80.9308 24° Northeast 461 531 37,000  Level Jacksonville Center
Mon 08:17:11 AM 32.0897 -80.8672 26° Northeast 461 531 37,000  Level Jacksonville Center
Mon 08:18:11 AM 32.2078 -80.8006 25° Northeast 455 524 37,000 -50 Level Jacksonville Center
Mon 08:19:11 AM 32.3092 -80.7442 25° Northeast 455 524 36,900  Descending Jacksonville Center
Mon 08:20:11 AM 32.4289 -80.6775 25° Northeast 455 524 37,000  Climbing Jacksonville Center
Mon 08:21:11 AM 32.5469 -80.6131 25° Northeast 460 529 36,900 -50 Descending Jacksonville Center
Mon 08:22:11 AM 32.6625 -80.5483 25° Northeast 460 529 36,900  Level Jacksonville Center
Mon 08:23:11 AM 32.7783 -80.4836 24° Northeast 454 522 36,900 50 Level Jacksonville Center
Mon 08:24:12 AM 32.8939 -80.4211 25° Northeast 454 522 37,000 50 Climbing Jacksonville Center
Mon 08:25:12 AM 33.0094 -80.3561 24° Northeast 459 528 37,000  Level Jacksonville Center
Mon 08:26:12 AM 33.1397 -80.2878 26° Northeast 447 514 37,000 -50 Level Jacksonville Center
Mon 08:27:12 AM 33.2572 -80.2197 26° Northeast 456 525 36,900  Descending Jacksonville Center
Mon 08:28:12 AM 33.3686 -80.1542 25° Northeast 456 525 37,000 50 Climbing Jacksonville Center
Mon 08:29:12 AM 33.4839 -80.0908 26° Northeast 451 519 37,000  Level Jacksonville Center
Mon 08:30:12 AM 33.5953 -80.0250 26° Northeast 451 519 37,000  Level Jacksonville Center
Mon 08:31:11 AM 33.7083 -79.9589 25° Northeast 451 519 37,000  Level Jacksonville Center
Mon 08:32:12 AM 33.8239 -79.8953 26° Northeast 451 519 37,000  Level Jacksonville Center
Mon 08:33:12 AM 33.9347 -79.8289 24° Northeast 446 513 37,000  Level Jacksonville Center
Mon 08:35:14 AM 34.1511 -79.7097 28° Northeast 434 499 37,000  Level Washington Center
Mon 08:36:15 AM 34.2725 -79.6328 24° Northeast 434 499 37,000  Level Washington Center
Mon 08:37:15 AM 34.3725 -79.5800 22° Northeast 434 499 37,000  Level Washington Center
Mon 08:38:14 AM 34.4869 -79.5225 24° Northeast 428 493 37,000  Level Washington Center
Mon 08:39:15 AM 34.5994 -79.4625 24° Northeast 428 493 37,000  Level Washington Center
Mon 08:40:15 AM 34.7119 -79.4019 24° Northeast 428 493 37,000  Level Washington Center
Mon 08:41:16 AM 34.8225 -79.3414 23° Northeast 428 493 37,000  Level Washington Center
Mon 08:42:14 AM 34.9456 -79.2761 24° Northeast 428 493 37,000  Level Washington Center
Mon 08:43:15 AM 35.0581 -79.2153 23° Northeast 428 493 37,000  Level Washington Center
Mon 08:44:16 AM 35.1703 -79.1569 24° Northeast 428 493 37,000  Level Washington Center
Mon 08:45:16 AM 35.2806 -79.0956 23° Northeast 428 493 37,000  Level Washington Center
Mon 08:46:14 AM 35.3928 -79.0367 24° Northeast 428 493 37,000  Level Washington Center
Mon 08:47:14 AM 35.5072 -78.9753 24° Northeast 437 503 37,000  Level Washington Center
Mon 08:48:15 AM 35.6197 -78.9136 23° Northeast 437 503 37,000  Level Washington Center
Mon 08:49:16 AM 35.7214 -78.8592 25° Northeast 437 503 37,000  Level Washington Center
Mon 08:50:16 AM 35.8314 -78.7969 25° Northeast 437 503 37,000  Level Washington Center
Mon 08:51:16 AM 35.9417 -78.7347 24° Northeast 437 503 37,000  Level Washington Center
Mon 08:52:14 AM 36.0622 -78.6678 23° Northeast 431 496 37,000  Level Washington Center
Mon 08:53:14 AM 36.1744 -78.6078 25° Northeast 431 496 37,000  Level Washington Center
Mon 08:54:14 AM 36.2844 -78.5450 25° Northeast 426 490 37,000  Level Washington Center
Mon 08:55:15 AM 36.3944 -78.4819 23° Northeast 431 496 37,000  Level Washington Center
Mon 08:56:16 AM 36.5067 -78.4217 25° Northeast 431 496 37,000  Level Washington Center
Mon 08:57:16 AM 36.6186 -78.3558 26° Northeast 431 496 37,000  Level Washington Center
Mon 08:58:14 AM 36.7139 -78.2969 24° Northeast 431 496 37,000  Level Washington Center
Mon 08:59:14 AM 36.8258 -78.2333 24° Northeast 431 496 37,000  Level Washington Center
Mon 09:00:16 AM 36.9378 -78.1697 24° Northeast 431 496 37,000  Level Washington Center
Mon 09:01:16 AM 37.0497 -78.1058 25° Northeast 431 496 37,000  Level Washington Center
Mon 09:02:14 AM 37.1617 -78.0417 25° Northeast 431 496 37,000  Level Washington Center
Mon 09:03:14 AM 37.2714 -77.9772 24° Northeast 431 496 37,000  Level Washington Center
Mon 09:04:15 AM 37.3853 -77.9128 25° Northeast 431 496 37,000  Level Washington Center
Mon 09:05:16 AM 37.4972 -77.8483 32° Northeast 431 496 37,000  Level Washington Center
Mon 09:06:16 AM 37.6031 -77.7650 36° Northeast 436 502 37,000  Level Washington Center
Mon 09:07:14 AM 37.7047 -77.6706 35° Northeast 442 509 37,000  Level Washington Center
Mon 09:08:15 AM 37.8064 -77.5789 35° Northeast 448 516 37,000  Level Washington Center
Mon 09:09:14 AM 37.9100 -77.4867 37° Northeast 454 522 37,000  Level Washington Center
Mon 09:10:15 AM 38.0097 -77.3917 37° Northeast 454 522 37,000  Level Washington Center
Mon 09:11:16 AM 38.1089 -77.2964 36° Northeast 454 522 37,000  Level Washington Center
Mon 09:12:16 AM 38.2103 -77.2036 35° Northeast 454 522 37,000  Level Washington Center
Mon 09:13:16 AM 38.3139 -77.1106 37° Northeast 454 522 37,000  Level Washington Center
Mon 09:14:14 AM 38.4150 -77.0147 35° Northeast 454 522 37,000  Level Washington Center
Mon 09:15:15 AM 38.5183 -76.9211 37° Northeast 454 522 37,000  Level Washington Center
Mon 09:16:15 AM 38.6214 -76.8219 36° Northeast 459 528 37,000  Level Washington Center
Mon 09:17:16 AM 38.7225 -76.7278 42° Northeast 459 528 37,000  Level Washington Center
Mon 09:18:14 AM 38.8300 -76.6042 42° Northeast 459 528 37,000  Level Washington Center
Mon 09:19:14 AM 38.9267 -76.4936 42° Northeast 459 528 37,000 -942 Level Washington Center
Mon 09:20:15 AM 39.0233 -76.3825 42° Northeast 464 534 35,100  Descending Washington Center
Mon 09:21:16 AM 39.1178 -76.2711 42° Northeast 464 534 37,000 -3,273 Climbing Washington Center
Mon 09:22:16 AM 39.2164 -76.1569 41° Northeast 464 534 28,500 -5,136 Descending Washington Center
Mon 09:23:14 AM 39.3147 -76.0450 43° Northeast 464 534 26,900 -756 Descending Washington Center
Mon 09:24:15 AM 39.4111 -75.9272 41° Northeast 464 534 27,000  Climbing Washington Center
Mon 09:25:16 AM 39.5092 -75.8147 45° Northeast 464 534 26,900 -1,210 Descending Washington Center
Mon 09:26:14 AM 39.5989 -75.6992 41° Northeast 458 527 24,600 -2,390 Descending Washington Center
Mon 09:27:14 AM 39.6969 -75.5889 43° Northeast 458 527 22,200 -2,331 Descending Washington Center
Mon 09:28:15 AM 39.7844 -75.4808 43° Northeast 448 516 19,900 -2,182 Descending Washington Center
Mon 09:29:15 AM 39.8697 -75.3778 42° Northeast 436 502 17,800 -2,331 Descending Washington Center
Mon 09:30:16 AM 39.9547 -75.2775 43° Northeast 417 480 15,200 -2,479 Descending Washington Center
Mon 09:31:16 AM 40.0336 -75.1822 42° Northeast 410 472 12,800 -1,561 Descending Washington Center
Mon 09:33:32 AM 40.2000 -74.9833 52° Northeast 320 368 10,100 -1,255 Descending New York TRACON
Mon 09:34:32 AM 40.2500 -74.9000 52° Northeast 301 346 8,700 -1,211 Descending New York TRACON
Mon 09:35:26 AM 40.3000 -74.8167 62° Northeast 289 333 7,800 -1,211 Descending New York TRACON
Mon 09:36:26 AM 40.3333 -74.7333 66° East 286 329 6,400 -1,300 Descending New York TRACON
Mon 09:37:26 AM 40.3667 -74.6333 62° Northeast 275 316 5,200 -850 Descending New York TRACON
Mon 09:38:26 AM 40.4000 -74.5500 75° East 267 307 4,700 -600 Descending New York TRACON
Mon 09:39:26 AM 40.4167 -74.4667 90° East 247 284 4,000 -600 Descending New York TRACON
Mon 09:40:26 AM 40.4167 -74.4000 49° Northeast 193 222 3,500 -850 Descending New York TRACON
Mon 09:41:26 AM 40.4500 -74.3500 49° Northeast 187 215 2,300 -750 Descending New York TRACON
Mon 09:42:26 AM 40.4833 -74.3000 27° Northeast 182 209 2,000 -200 Descending New York TRACON
Mon 09:43:26 AM 40.5333 -74.2667 27° Northeast 185 213 1,900 -100 Descending New York TRACON

Login

Don't have an account? Register now (free) for customized features, flight alerts, and more!